TimeCST,TemperatureF,Dew PointF,Humidity,Sea Level PressureIn,VisibilityMPH,Wind Direction,Wind SpeedMPH,Gust SpeedMPH,PrecipitationIn,Events,Conditions,WindDirDegrees,DateUTC
12:51 AM,51.1,30.9,46,30.08,10.0,SSW,5.8,-,N/A,,Clear,210,2012-11-06 06:51:00
1:51 AM,51.1,30.9,46,30.08,10.0,SW,5.8,-,N/A,,Clear,220,2012-11-06 07:51:00
2:51 AM,46.9,30.0,52,30.09,10.0,West,5.8,-,N/A,,Clear,260,2012-11-06 08:51:00
3:51 AM,48.0,30.0,50,30.08,10.0,West,4.6,-,N/A,,Clear,280,2012-11-06 09:51:00
6:51 AM,48.9,30.0,48,30.09,10.0,WSW,8.1,-,N/A,,Clear,250,2012-11-06 12:51:00
8:51 AM,53.1,30.0,41,30.14,10.0,West,5.8,-,N/A,,Clear,280,2012-11-06 14:51:00
9:51 AM,57.9,30.0,35,30.16,10.0,WNW,5.8,-,N/A,,Clear,290,2012-11-06 15:51:00
10:51 AM,66.9,30.9,26,30.15,10.0,Variable,4.6,-,N/A,,Clear,0,2012-11-06 16:51:00
11:51 AM,72.0,30.9,22,30.14,10.0,NNE,12.7,-,N/A,,Clear,30,2012-11-06 17:51:00
12:51 PM,73.0,32.0,22,30.12,10.0,North,15.0,19.6,N/A,,Clear,10,2012-11-06 18:51:00
1:51 PM,72.0,33.1,24,30.11,10.0,North,11.5,-,N/A,,Clear,360,2012-11-06 19:51:00
2:51 PM,73.9,34.0,23,30.10,10.0,North,6.9,-,N/A,,Clear,350,2012-11-06 20:51:00
4:51 PM,73.0,34.0,24,30.12,10.0,NNE,6.9,-,N/A,,Clear,20,2012-11-06 22:51:00
5:51 PM,68.0,35.1,30,30.13,10.0,NE,4.6,-,N/A,,Clear,40,2012-11-06 23:51:00
6:51 PM,64.9,35.1,33,30.14,10.0,NE,3.5,-,N/A,,Clear,40,2012-11-07 00:51:00
7:51 PM,64.0,35.1,34,30.15,10.0,Calm,Calm,-,N/A,,Clear,0,2012-11-07 01:51:00
8:51 PM,62.1,35.1,37,30.15,10.0,SE,3.5,-,N/A,,Clear,130,2012-11-07 02:51:00
9:51 PM,59.0,34.0,39,30.14,10.0,Calm,Calm,-,N/A,,Clear,0,2012-11-07 03:51:00
10:51 PM,55.0,34.0,45,30.14,10.0,Calm,Calm,-,N/A,,Clear,0,2012-11-07 04:51:00
11:51 PM,53.1,34.0,48,30.14,10.0,Calm,Calm,-,N/A,,Clear,0,2012-11-07 05:51:00